Time;durP1;ratioP1;P1;durP2;ratioP2;P2;SDS_P1;SDS_P2;PMS_P1;PMS_P2;Temp;Humidity;BMP_temperature;BMP_pressure;BME280_temperature;BME280_humidity;BME280_pressure;Samples;Min_cycle;Max_cycle;Signal;HPM_P1;HPM_P2
2023/08/10 00:00:16;;;;;;;;;;;;;;;16.37;63.17;99868.91;5114853;27;6224;-76
2023/08/10 00:03:08;;;;;;;;;;;;;;;16.40;62.83;99871.06;5114948;27;5505;-76
2023/08/10 00:06:00;;;;;;;;;;;;;;;16.32;63.14;99872.41;5116155;27;5552;-76
2023/08/10 00:08:51;;;;;;;;;;;;;;;16.39;62.90;99872.97;5117095;27;6571;-76
2023/08/10 00:11:42;;;;;;;;;;;;;;;16.23;63.30;99872.16;5113857;27;5409;-77
2023/08/10 00:14:34;;;;;;;;;;;;;;;16.16;63.39;99879.78;5110665;27;6398;-75
2023/08/10 00:17:26;;;;;;;;;;;;;;;16.10;63.82;99889.84;5109425;27;6356;-77
2023/08/10 00:20:18;;;;;;;;;;;;;;;16.34;62.93;99881.94;5113144;27;5440;-76
2023/08/10 00:23:10;;;;;;;;;;;;;;;16.17;63.32;99878.69;5111294;27;5340;-76
2023/08/10 00:26:03;;;;;;;;;;;;;;;16.17;63.63;99884.13;5114786;27;6626;-77
2023/08/10 00:28:54;;;;;;;;;;;;;;;16.06;63.71;99887.91;5114227;27;6208;-77
2023/08/10 00:31:45;;;;;;;;;;;;;;;16.15;63.63;99883.59;5118285;27;5591;-76
2023/08/10 00:34:37;;;;;;;;;;;;;;;16.11;63.50;99896.88;5118675;27;6105;-75
2023/08/10 00:37:28;;;;;;;;;;;;;;;16.19;63.30;99886.56;5113635;27;5764;-76
2023/08/10 00:40:20;;;;;;;;;;;;;;;15.90;64.35;99893.34;5114266;27;5532;-76
2023/08/10 00:43:12;;;;;;;;;;;;;;;16.19;63.43;99898.25;5121970;27;6662;-76
2023/08/10 00:46:04;;;;;;;;;;;;;;;16.31;62.90;99900.69;5117535;27;5594;-77
2023/08/10 00:48:56;;;;;;;;;;;;;;;16.24;63.04;99892.81;5110800;27;6399;-77
2023/08/10 00:51:48;;;;;;;;;;;;;;;16.19;63.15;99894.72;5114667;27;6876;-76
2023/08/10 00:54:40;;;;;;;;;;;;;;;16.28;62.84;99895.81;5115288;27;6355;-77
2023/08/10 00:57:32;;;;;;;;;;;;;;;16.32;62.68;99899.59;5110144;27;5464;-77
2023/08/10 01:00:24;;;;;;;;;;;;;;;16.12;63.26;99903.16;5112106;27;5301;-75
2023/08/10 01:03:16;;;;;;;;;;;;;;;16.30;62.86;99901.78;5112298;27;7912;-76
2023/08/10 01:06:08;;;;;;;;;;;;;;;16.03;63.53;99908.31;5112882;27;6051;-74
2023/08/10 01:09:00;;;;;;;;;;;;;;;16.07;63.42;99917.53;5109408;27;5505;-78
2023/08/10 01:11:52;;;;;;;;;;;;;;;16.07;63.45;99919.44;5112091;27;5345;-78
2023/08/10 01:14:44;;;;;;;;;;;;;;;16.02;63.61;99920.25;5114427;27;6693;-76
2023/08/10 01:17:36;;;;;;;;;;;;;;;15.93;63.89;99924.59;5111751;27;5727;-77
2023/08/10 01:20:28;;;;;;;;;;;;;;;15.78;64.27;99922.69;5110679;27;5437;-76
2023/08/10 01:23:20;;;;;;;;;;;;;;;15.97;63.65;99922.97;5110677;27;6320;-76
2023/08/10 01:26:12;;;;;;;;;;;;;;;15.95;63.75;99924.34;5111721;27;6322;-76
2023/08/10 01:29:04;;;;;;;;;;;;;;;15.92;63.94;99922.16;5112027;27;5416;-78
2023/08/10 01:31:56;;;;;;;;;;;;;;;15.74;64.40;99934.34;5112183;27;6350;-74
2023/08/10 01:34:47;;;;;;;;;;;;;;;15.92;63.79;99933.03;5112816;27;6403;-78
2023/08/10 01:37:39;;;;;;;;;;;;;;;15.77;64.29;99925.66;5111529;27;6192;-76
2023/08/10 01:40:31;;;;;;;;;;;;;;;15.73;64.43;99921.84;5112862;27;6094;-74
2023/08/10 01:43:23;;;;;;;;;;;;;;;15.79;64.10;99937.88;5115385;27;5516;-78
2023/08/10 01:46:15;;;;;;;;;;;;;;;15.77;64.16;99937.34;5116795;27;5517;-77
2023/08/10 01:49:07;;;;;;;;;;;;;;;15.57;64.90;99938.06;5112680;27;6442;-76
2023/08/10 01:51:59;;;;;;;;;;;;;;;15.67;64.55;99940.00;5110376;27;5517;-77
2023/08/10 01:54:51;;;;;;;;;;;;;;;15.68;64.60;99944.38;5111500;27;7877;-75
2023/08/10 01:57:43;;;;;;;;;;;;;;;15.66;64.56;99941.91;5111330;27;5429;-75
2023/08/10 02:00:37;;;;;;;;;;;;;;;15.73;64.24;99940.84;5111089;27;5777;-76
2023/08/10 02:03:29;;;;;;;;;;;;;;;15.57;64.76;99931.84;5113646;27;6226;-78
2023/08/10 02:06:21;;;;;;;;;;;;;;;15.45;65.18;99934.78;5108433;27;6350;-75
2023/08/10 02:09:13;;;;;;;;;;;;;;;15.49;65.14;99943.22;5108783;27;6468;-76
2023/08/10 02:12:05;;;;;;;;;;;;;;;15.23;64.76;99886.16;5110369;27;6148;-75
2023/08/10 02:14:58;;;;;;;;;;;;;;;15.58;64.70;99952.47;5111847;27;6771;-77
2023/08/10 02:17:50;;;;;;;;;;;;;;;15.55;64.81;99950.28;5112863;27;5536;-76
2023/08/10 02:20:42;;;;;;;;;;;;;;;15.62;64.63;99948.16;5111435;27;5428;-76
2023/08/10 02:23:35;;;;;;;;;;;;;;;15.52;64.94;99956.25;5110155;27;5331;-76
2023/08/10 02:26:26;;;;;;;;;;;;;;;15.52;64.87;99951.63;5109511;27;5418;-78
2023/08/10 02:29:18;;;;;;;;;;;;;;;15.50;64.98;99963.81;5110773;27;5345;-78
2023/08/10 02:32:10;;;;;;;;;;;;;;;15.40;65.14;99956.47;5108578;27;5425;-76
2023/08/10 02:35:04;;;;;;;;;;;;;;;15.42;65.09;99957.03;5109476;27;5382;-76
2023/08/10 02:37:55;;;;;;;;;;;;;;;15.32;65.50;99965.94;5109381;27;6069;-76
2023/08/10 02:40:47;;;;;;;;;;;;;;;15.31;65.48;99963.50;5109755;27;6265;-77
2023/08/10 02:43:39;;;;;;;;;;;;;;;15.45;64.92;99970.06;5110916;28;5449;-75
2023/08/10 02:46:32;;;;;;;;;;;;;;;15.50;64.62;99972.81;5112061;27;6446;-77
2023/08/10 02:49:23;;;;;;;;;;;;;;;15.52;64.72;99983.38;5108667;28;6062;-76
2023/08/10 02:52:15;;;;;;;;;;;;;;;15.38;65.08;99978.47;5114436;27;5536;-76
2023/08/10 02:55:07;;;;;;;;;;;;;;;15.42;64.99;99982.25;5112400;27;5476;-77
2023/08/10 02:57:59;;;;;;;;;;;;;;;15.30;65.42;99984.38;5112728;27;5521;-77
2023/08/10 03:00:52;;;;;;;;;;;;;;;15.47;64.84;99988.78;5111902;27;5611;-78
2023/08/10 03:03:44;;;;;;;;;;;;;;;15.44;64.98;99977.41;5113376;27;6265;-78
2023/08/10 03:06:36;;;;;;;;;;;;;;;15.53;64.75;99982.28;5116992;27;5457;-77
2023/08/10 03:09:27;;;;;;;;;;;;;;;15.46;64.66;99990.69;5117360;27;5521;-77
2023/08/10 03:12:19;;;;;;;;;;;;;;;15.33;65.15;99996.63;5114377;27;5469;-76
2023/08/10 03:15:11;;;;;;;;;;;;;;;15.28;65.38;99994.69;5118223;27;5666;-74
2023/08/10 03:18:03;;;;;;;;;;;;;;;15.36;65.20;99991.47;5118679;27;5465;-77
2023/08/10 03:20:55;;;;;;;;;;;;;;;15.36;65.05;99996.88;5115777;27;5543;-77
2023/08/10 03:23:47;;;;;;;;;;;;;;;15.34;65.05;99993.63;5118103;27;5518;-76
2023/08/10 03:26:39;;;;;;;;;;;;;;;15.41;64.71;99987.94;5115387;27;6124;-77
2023/08/10 03:29:31;;;;;;;;;;;;;;;15.33;65.04;99997.41;5114922;27;5464;-76
2023/08/10 03:32:24;;;;;;;;;;;;;;;15.36;64.83;99994.19;5113506;27;5607;-75
2023/08/10 03:35:15;;;;;;;;;;;;;;;15.43;64.74;100002.06;5112825;27;5407;-76
2023/08/10 03:38:08;;;;;;;;;;;;;;;15.49;64.64;99997.47;5112614;27;5467;-77
2023/08/10 03:41:00;;;;;;;;;;;;;;;15.32;65.07;100003.09;5111487;27;6097;-78
2023/08/10 03:43:52;;;;;;;;;;;;;;;15.28;65.00;99994.69;5117046;27;5538;-78
2023/08/10 03:46:44;;;;;;;;;;;;;;;15.35;64.87;99999.84;5114078;27;5460;-78
2023/08/10 03:49:36;;;;;;;;;;;;;;;15.51;64.23;100003.47;5114725;27;5414;-75
2023/08/10 03:52:28;;;;;;;;;;;;;;;15.35;64.72;99994.44;5112453;27;5569;-78
2023/08/10 03:55:21;;;;;;;;;;;;;;;15.33;64.93;100008.28;5115119;27;6216;-77
2023/08/10 03:58:12;;;;;;;;;;;;;;;15.28;64.92;100000.09;5115222;27;6201;-77
2023/08/10 04:01:06;;;;;;;;;;;;;;;15.29;65.09;99999.00;5117068;27;5484;-76
2023/08/10 04:03:58;;;;;;;;;;;;;;;15.45;64.35;99995.28;5114958;27;6572;-76
2023/08/10 04:06:50;;;;;;;;;;;;;;;15.34;64.87;99998.22;5118365;27;5555;-75
2023/08/10 04:09:46;;;;;;;;;;;;;;;15.21;65.21;100002.25;5111210;27;5356;-75
2023/08/10 04:12:37;;;;;;;;;;;;;;;15.20;65.26;100006.03;5114606;27;5547;-77
2023/08/10 04:15:30;;;;;;;;;;;;;;;15.35;64.62;100008.84;5111978;27;5449;-78
2023/08/10 04:18:21;;;;;;;;;;;;;;;15.28;64.95;100010.94;5114381;27;5342;-76
2023/08/10 04:21:13;;;;;;;;;;;;;;;14.62;64.87;99918.38;5113816;27;5396;-77
2023/08/10 04:24:05;;;;;;;;;;;;;;;15.30;64.84;100011.53;5114262;27;5330;-75
2023/08/10 04:26:58;;;;;;;;;;;;;;;15.32;64.83;100011.22;5113493;27;5434;-76
2023/08/10 04:29:49;;;;;;;;;;;;;;;15.20;65.15;100019.59;5114871;27;5469;-76
2023/08/10 04:32:41;;;;;;;;;;;;;;;15.21;65.02;100019.34;5112623;27;5423;-76
2023/08/10 04:35:33;;;;;;;;;;;;;;;15.25;64.88;100024.25;5111604;27;5434;-77
2023/08/10 04:38:25;;;;;;;;;;;;;;;15.18;64.97;100024.47;5115723;27;6033;-76
2023/08/10 04:41:18;;;;;;;;;;;;;;;15.17;65.10;100029.06;5113284;27;6246;-78
2023/08/10 04:44:09;;;;;;;;;;;;;;;15.39;64.47;100028.13;5112210;27;5335;-76
2023/08/10 04:47:02;;;;;;;;;;;;;;;15.26;64.83;100023.16;5111515;27;5433;-77
2023/08/10 04:49:54;;;;;;;;;;;;;;;15.28;64.77;100029.94;5115964;27;6442;-77
2023/08/10 04:52:46;;;;;;;;;;;;;;;15.20;64.81;100033.16;5117329;27;5365;-76
2023/08/10 04:55:38;;;;;;;;;;;;;;;15.12;65.30;100039.09;5111816;27;5283;-75
2023/08/10 04:58:30;;;;;;;;;;;;;;;15.19;64.88;100037.75;5114199;27;6288;-75
2023/08/10 05:01:21;;;;;;;;;;;;;;;15.11;65.15;100040.16;5115749;27;6196;-76
2023/08/10 05:04:14;;;;;;;;;;;;;;;15.10;65.39;100046.66;5115096;27;5540;-75
2023/08/10 05:07:06;;;;;;;;;;;;;;;15.25;64.93;100046.75;5114850;27;5717;-76
2023/08/10 05:09:58;;;;;;;;;;;;;;;15.12;65.04;100049.94;5114555;27;5368;-78
2023/08/10 05:12:49;;;;;;;;;;;;;;;15.02;65.39;100044.44;5116107;27;5472;-76
2023/08/10 05:15:41;;;;;;;;;;;;;;;15.03;65.46;100049.63;5110881;27;8206;-76
2023/08/10 05:18:34;;;;;;;;;;;;;;;15.09;65.22;100050.44;5112285;27;5469;-77
2023/08/10 05:21:25;;;;;;;;;;;;;;;15.04;65.40;100053.94;5113004;27;6709;-75
2023/08/10 05:24:17;;;;;;;;;;;;;;;15.04;65.13;100074.84;5113217;27;6188;-77
2023/08/10 05:27:09;;;;;;;;;;;;;;;15.01;65.47;100070.75;5114525;27;5632;-78
2023/08/10 05:30:02;;;;;;;;;;;;;;;15.17;64.83;100069.75;5113976;27;5536;-76
2023/08/10 05:32:53;;;;;;;;;;;;;;;14.99;65.33;100068.28;5117674;27;6156;-76
2023/08/10 05:35:46;;;;;;;;;;;;;;;15.02;65.26;100074.25;5113677;27;6252;-76
2023/08/10 05:38:37;;;;;;;;;;;;;;;15.08;65.05;100078.66;5115387;27;6452;-76
2023/08/10 05:41:30;;;;;;;;;;;;;;;15.07;65.01;100077.84;5115325;27;5524;-78
2023/08/10 05:44:21;;;;;;;;;;;;;;;15.21;64.53;100078.19;5111538;27;5399;-76
2023/08/10 05:47:14;;;;;;;;;;;;;;;15.12;64.92;100093.34;5113914;27;5458;-77
2023/08/10 05:50:06;;;;;;;;;;;;;;;14.99;65.22;100100.81;5113321;27;5567;-77
2023/08/10 05:52:57;;;;;;;;;;;;;;;15.13;64.91;100089.53;5115149;27;6091;-77
2023/08/10 05:55:50;;;;;;;;;;;;;;;15.11;64.89;100084.34;5113281;27;6150;-77
2023/08/10 05:58:41;;;;;;;;;;;;;;;15.10;64.91;100096.28;5113367;27;6159;-76
2023/08/10 06:01:34;;;;;;;;;;;;;;;15.18;64.45;100097.72;5114550;27;6152;-74
2023/08/10 06:04:27;;;;;;;;;;;;;;;15.01;65.03;100095.16;5113118;27;5535;-78
2023/08/10 06:07:18;;;;;;;;;;;;;;;15.06;64.88;100103.31;5108309;27;5393;-78
2023/08/10 06:10:10;;;;;;;;;;;;;;;15.08;64.62;100101.16;5107649;27;5426;-76
2023/08/10 06:13:03;;;;;;;;;;;;;;;15.23;64.50;100111.28;5109124;27;6062;-76
2023/08/10 06:15:54;;;;;;;;;;;;;;;15.09;64.81;100115.53;5109738;27;6176;-76
2023/08/10 06:18:47;;;;;;;;;;;;;;;15.04;64.87;100120.94;5107966;27;6499;-78
2023/08/10 06:21:38;;;;;;;;;;;;;;;15.03;64.94;100116.56;5104693;27;6559;-76
2023/08/10 06:24:30;;;;;;;;;;;;;;;15.02;64.92;100123.88;5106317;27;5418;-75
2023/08/10 06:27:23;;;;;;;;;;;;;;;15.05;64.80;100127.97;5108072;27;5445;-76
2023/08/10 06:30:15;;;;;;;;;;;;;;;14.95;65.11;100131.44;5106011;27;6162;-78
2023/08/10 06:33:07;;;;;;;;;;;;;;;15.08;64.82;100128.28;5104135;27;6011;-78
2023/08/10 06:35:58;;;;;;;;;;;;;;;15.12;64.44;100131.31;5103813;27;5555;-77
2023/08/10 06:38:51;;;;;;;;;;;;;;;15.03;64.94;100130.13;5104212;27;6082;-78
2023/08/10 06:41:42;;;;;;;;;;;;;;;15.16;64.39;100121.56;5107912;27;6383;-78
2023/08/10 06:44:34;;;;;;;;;;;;;;;14.95;65.15;100124.13;5103497;28;5345;-78
2023/08/10 06:47:25;;;;;;;;;;;;;;;14.96;64.97;100122.22;5115734;28;5520;-79
2023/08/10 06:50:17;;;;;;;;;;;;;;;14.93;65.09;100128.97;5108800;27;6700;-79
2023/08/10 06:53:11;;;;;;;;;;;;;;;15.11;64.72;100124.22;5107361;27;5940;-77
2023/08/10 06:56:03;;;;;;;;;;;;;;;14.86;65.37;100127.56;5110656;28;5594;-77
2023/08/10 06:58:56;;;;;;;;;;;;;;;14.94;65.28;100124.34;5110814;27;7388;-78
2023/08/10 07:01:47;;;;;;;;;;;;;;;14.88;65.21;100133.53;5109105;27;5948;-76
2023/08/10 07:04:40;;;;;;;;;;;;;;;14.89;65.36;100136.00;5110377;27;5464;-78
2023/08/10 07:07:32;;;;;;;;;;;;;;;14.88;65.17;100141.66;5104763;27;5808;-77
2023/08/10 07:10:23;;;;;;;;;;;;;;;15.16;64.33;100146.78;5105392;28;5526;-75
2023/08/10 07:13:15;;;;;;;;;;;;;;;15.06;64.46;100151.31;5105530;27;5398;-79
2023/08/10 07:16:07;;;;;;;;;;;;;;;14.90;65.14;100153.06;5109738;27;6631;-78
2023/08/10 07:18:59;;;;;;;;;;;;;;;14.99;64.92;100154.25;5110230;27;6102;-78
2023/08/10 07:21:55;;;;;;;;;;;;;;;15.05;64.63;100147.78;5112035;27;6272;-76
2023/08/10 07:24:46;;;;;;;;;;;;;;;14.74;66.45;100150.22;5110476;27;5292;-77
2023/08/10 07:27:38;;;;;;;;;;;;;;;14.94;65.23;100149.59;5110705;27;6402;-78
2023/08/10 07:30:31;;;;;;;;;;;;;;;14.97;64.92;100146.38;5110207;27;5072;-77
2023/08/10 07:33:22;;;;;;;;;;;;;;;15.12;64.52;100148.41;5111354;27;6248;-78
2023/08/10 07:36:13;;;;;;;;;;;;;;;15.16;64.33;100140.53;5111209;27;5139;-77
2023/08/10 07:39:05;;;;;;;;;;;;;;;15.09;64.48;100148.06;5114175;27;6455;-76
2023/08/10 07:41:58;;;;;;;;;;;;;;;14.98;64.92;100147.19;5113403;27;6141;-76
2023/08/10 07:44:49;;;;;;;;;;;;;;;14.97;64.84;100146.38;5110865;27;5276;-78
2023/08/10 07:47:41;;;;;;;;;;;;;;;15.10;64.46;100142.41;5114524;27;5798;-76
2023/08/10 07:50:33;;;;;;;;;;;;;;;15.10;64.64;100155.97;5113276;27;5302;-77
2023/08/10 07:53:28;;;;;;;;;;;;;;;15.13;64.43;100157.34;5113898;27;5561;-77
2023/08/10 07:56:19;;;;;;;;;;;;;;;15.08;64.69;100162.72;5114143;27;5108;-76
2023/08/10 07:59:12;;;;;;;;;;;;;;;14.98;64.95;100163.47;5115530;27;5113;-77
2023/08/10 08:02:03;;;;;;;;;;;;;;;14.95;64.94;100166.69;5112938;27;5218;-77
2023/08/10 08:04:56;;;;;;;;;;;;;;;15.02;64.80;100167.28;5115937;27;5276;-79
2023/08/10 08:07:48;;;;;;;;;;;;;;;15.15;64.34;100169.56;5110841;27;5067;-78
2023/08/10 08:10:40;;;;;;;;;;;;;;;14.96;64.93;100171.84;5115579;27;5122;-75
2023/08/10 08:13:32;;;;;;;;;;;;;;;14.94;65.04;100176.72;5117938;27;5187;-76
2023/08/10 08:16:24;;;;;;;;;;;;;;;15.04;64.86;100177.88;5116613;27;5544;-77
2023/08/10 08:19:17;;;;;;;;;;;;;;;14.83;65.34;100174.19;5113261;27;5728;-78
2023/08/10 08:22:10;;;;;;;;;;;;;;;14.73;65.70;100174.88;5111902;27;5114;-77
2023/08/10 08:25:02;;;;;;;;;;;;;;;14.70;66.00;100172.69;5109065;27;6169;-77
2023/08/10 08:27:54;;;;;;;;;;;;;;;14.73;65.95;100175.69;5131484;27;2032;-77
2023/08/10 08:30:45;;;;;;;;;;;;;;;14.68;65.95;100174.84;5126596;27;4618;-76
2023/08/10 08:33:38;;;;;;;;;;;;;;;14.82;65.81;100186.06;5126253;27;1886;-77
2023/08/10 08:36:30;;;;;;;;;;;;;;;14.73;65.93;100178.41;5128708;27;2034;-78
2023/08/10 08:39:22;;;;;;;;;;;;;;;14.21;65.89;100097.66;5126539;27;2175;-76
2023/08/10 08:42:13;;;;;;;;;;;;;;;14.68;65.97;100175.66;5129085;27;5293;-76
2023/08/10 08:45:06;;;;;;;;;;;;;;;14.69;66.00;100181.88;5121604;27;1852;-77
2023/08/10 08:47:58;;;;;;;;;;;;;;;14.70;66.06;100172.69;5124851;27;2283;-78
2023/08/10 08:50:50;;;;;;;;;;;;;;;14.70;66.06;100172.69;5113775;27;5164;-76
2023/08/10 08:53:41;;;;;;;;;;;;;;;14.94;65.31;100184.00;5116186;27;5311;-78
2023/08/10 08:56:33;;;;;;;;;;;;;;;14.92;65.35;100180.75;5114640;27;5473;-76
2023/08/10 08:59:25;;;;;;;;;;;;;;;14.96;65.36;100184.59;5114114;27;5183;-76
2023/08/10 09:02:17;;;;;;;;;;;;;;;14.91;65.21;100184.53;5115712;27;5238;-77
2023/08/10 09:05:08;;;;;;;;;;;;;;;14.99;65.02;100187.59;5123531;27;4086;-76
2023/08/10 09:08:00;;;;;;;;;;;;;;;15.38;64.01;100181.97;5125571;27;2798;-78
2023/08/10 09:10:51;;;;;;;;;;;;;;;15.47;63.42;100185.00;5127066;27;2087;-78
2023/08/10 09:13:44;;;;;;;;;;;;;;;15.94;61.76;100176.06;5127066;27;2251;-76
2023/08/10 09:16:36;;;;;;;;;;;;;;;16.03;61.58;100184.50;5114961;27;5378;-77
2023/08/10 09:19:28;;;;;;;;;;;;;;;16.16;61.18;100194.09;5115082;27;5324;-77
2023/08/10 09:22:20;;;;;;;;;;;;;;;16.11;61.31;100203.03;5118054;27;5285;-76
2023/08/10 09:25:12;;;;;;;;;;;;;;;16.10;61.27;100199.50;5115005;27;5130;-76
2023/08/10 09:28:04;;;;;;;;;;;;;;;16.12;61.13;100197.34;5112131;27;5370;-77
2023/08/10 09:30:56;;;;;;;;;;;;;;;15.85;61.99;100202.06;5119294;27;6141;-76
2023/08/10 09:33:48;;;;;;;;;;;;;;;15.66;62.85;100201.66;5114869;27;5356;-76
2023/08/10 09:36:40;;;;;;;;;;;;;;;15.34;63.90;100205.25;5116001;27;5294;-78
2023/08/10 09:39:32;;;;;;;;;;;;;;;15.36;63.84;100202.28;5115740;27;5277;-77
2023/08/10 09:42:24;;;;;;;;;;;;;;;15.29;64.15;100207.91;5114800;27;5351;-77
2023/08/10 09:45:17;;;;;;;;;;;;;;;15.00;65.04;100202.00;5116118;27;5327;-78
2023/08/10 09:48:08;;;;;;;;;;;;;;;14.85;65.72;100209.97;5114592;27;5276;-78
2023/08/10 09:51:01;;;;;;;;;;;;;;;14.84;65.86;100211.03;5115867;27;5235;-76
2023/08/10 09:53:54;;;;;;;;;;;;;;;14.80;66.11;100204.50;5116499;27;5315;-75
2023/08/10 09:56:46;;;;;;;;;;;;;;;14.79;66.14;100211.78;5116242;27;5220;-76
2023/08/10 09:59:38;;;;;;;;;;;;;;;14.79;66.18;100209.09;5118668;27;5236;-76
2023/08/10 10:02:30;;;;;;;;;;;;;;;14.79;66.29;100203.66;5116620;27;5407;-76
2023/08/10 10:05:22;;;;;;;;;;;;;;;14.80;66.19;100215.34;5110327;27;5169;-77
2023/08/10 10:08:15;;;;;;;;;;;;;;;14.80;66.17;100208.03;5113158;27;5237;-75
2023/08/10 10:11:07;;;;;;;;;;;;;;;14.81;66.22;100209.66;5111843;27;5328;-77
2023/08/10 10:13:58;;;;;;;;;;;;;;;14.80;66.38;100216.16;5115632;27;5907;-76
2023/08/10 10:16:51;;;;;;;;;;;;;;;14.81;66.44;100219.69;5115260;27;6401;-76
2023/08/10 10:19:43;;;;;;;;;;;;;;;14.82;66.45;100216.72;5115813;27;5794;-76
2023/08/10 10:22:34;;;;;;;;;;;;;;;14.84;66.28;100219.19;5114470;27;6244;-77
2023/08/10 10:25:25;;;;;;;;;;;;;;;14.83;66.48;100218.38;5112357;27;5225;-76
2023/08/10 10:28:17;;;;;;;;;;;;;;;14.85;66.47;100228.94;5116555;27;5272;-77
2023/08/10 10:31:09;;;;;;;;;;;;;;;14.86;66.34;100230.59;5112031;27;5218;-77
2023/08/10 10:34:01;;;;;;;;;;;;;;;14.86;66.49;100231.41;5114571;27;5218;-75
2023/08/10 10:36:53;;;;;;;;;;;;;;;14.87;66.43;100241.16;5114603;27;6409;-74
2023/08/10 10:39:45;;;;;;;;;;;;;;;14.89;66.40;100243.63;5114873;27;6023;-78
2023/08/10 10:42:36;;;;;;;;;;;;;;;14.88;66.59;100240.13;5107652;27;5242;-76
2023/08/10 10:45:28;;;;;;;;;;;;;;;14.90;66.54;100239.84;5107797;28;5108;-76
2023/08/10 10:48:19;;;;;;;;;;;;;;;14.90;66.64;100235.22;5109228;28;5213;-75
2023/08/10 10:51:12;;;;;;;;;;;;;;;14.90;66.54;100237.94;5108600;28;4978;-77
2023/08/10 10:54:03;;;;;;;;;;;;;;;14.90;66.47;100237.94;5109281;28;5168;-77
2023/08/10 10:56:55;;;;;;;;;;;;;;;14.92;66.61;100243.94;5107506;28;5471;-75
2023/08/10 10:59:48;;;;;;;;;;;;;;;14.92;66.68;100245.84;5107688;28;5283;-78
2023/08/10 11:02:39;;;;;;;;;;;;;;;14.93;66.58;100245.56;5109596;28;5233;-78
2023/08/10 11:05:31;;;;;;;;;;;;;;;14.93;66.56;100248.28;5109642;28;5224;-77
2023/08/10 11:08:24;;;;;;;;;;;;;;;14.94;66.66;100246.38;5106056;28;5308;-77
2023/08/10 11:11:15;;;;;;;;;;;;;;;14.94;66.54;100257.22;5107978;28;5801;-76
2023/08/10 11:14:08;;;;;;;;;;;;;;;14.96;66.73;100257.78;5108914;28;6397;-75
2023/08/10 11:17:00;;;;;;;;;;;;;;;14.98;66.68;100255.66;5110794;28;5433;-76
2023/08/10 11:19:51;;;;;;;;;;;;;;;14.97;66.53;100260.25;5109055;28;5230;-77
2023/08/10 11:22:42;;;;;;;;;;;;;;;14.98;66.56;100272.75;5106792;28;5213;-75
2023/08/10 11:25:35;;;;;;;;;;;;;;;14.97;66.85;100271.13;5108175;27;5170;-76
2023/08/10 11:28:27;;;;;;;;;;;;;;;14.99;66.80;100266.22;5110593;27;5283;-77
2023/08/10 11:31:19;;;;;;;;;;;;;;;14.99;66.78;100263.53;5110752;27;5523;-78
2023/08/10 11:34:11;;;;;;;;;;;;;;;15.01;66.76;100265.19;5112365;27;5038;-75
2023/08/10 11:37:03;;;;;;;;;;;;;;;15.01;66.66;100257.84;5110387;27;5196;-77
2023/08/10 11:39:55;;;;;;;;;;;;;;;15.02;66.76;100256.78;5109412;27;5306;-77
2023/08/10 11:42:47;;;;;;;;;;;;;;;15.03;66.72;100268.44;5112953;27;5777;-77
2023/08/10 11:45:39;;;;;;;;;;;;;;;15.02;66.73;100261.38;5116935;27;5349;-78
2023/08/10 11:48:31;;;;;;;;;;;;;;;15.05;66.76;100269.00;5108468;27;6215;-76
2023/08/10 11:51:22;;;;;;;;;;;;;;;15.05;66.81;100271.72;5111715;27;5280;-76
2023/08/10 11:54:14;;;;;;;;;;;;;;;15.18;66.27;100272.13;5109628;27;5079;-76
2023/08/10 11:57:06;;;;;;;;;;;;;;;15.15;66.58;100267.22;5109562;27;5299;-76
2023/08/10 11:59:58;;;;;;;;;;;;;;;15.14;66.71;100278.31;5111277;27;5008;-76
2023/08/10 12:02:49;;;;;;;;;;;;;;;15.14;66.72;100279.13;5109158;27;6359;-78
2023/08/10 12:05:42;;;;;;;;;;;;;;;15.14;66.86;100281.03;5118344;27;5336;-76
2023/08/10 12:08:33;;;;;;;;;;;;;;;15.15;66.77;100282.69;5117461;27;6176;-75
2023/08/10 12:11:26;;;;;;;;;;;;;;;15.15;66.91;100278.06;5117494;27;6201;-76
2023/08/10 12:14:17;;;;;;;;;;;;;;;15.15;66.87;100282.69;5119481;27;5155;-76
2023/08/10 12:17:10;;;;;;;;;;;;;;;15.16;67.01;100282.41;5117329;27;5325;-76
2023/08/10 12:20:02;;;;;;;;;;;;;;;15.16;66.99;100273.47;5116787;27;5222;-76
2023/08/10 12:22:54;;;;;;;;;;;;;;;15.17;67.13;100277.78;5114511;27;5349;-76
2023/08/10 12:25:46;;;;;;;;;;;;;;;15.18;67.01;100282.16;5117978;27;5221;-78
2023/08/10 12:28:38;;;;;;;;;;;;;;;15.18;66.90;100287.59;5117302;27;5415;-76
2023/08/10 12:31:30;;;;;;;;;;;;;;;15.19;67.04;100281.91;5116775;27;6402;-78
2023/08/10 12:34:21;;;;;;;;;;;;;;;15.19;67.16;100287.31;5107378;27;5146;-76
2023/08/10 12:37:14;;;;;;;;;;;;;;;15.20;66.92;100283.53;5106770;27;5248;-75
2023/08/10 12:40:05;;;;;;;;;;;;;;;15.21;67.10;100285.19;5108863;27;5239;-78
2023/08/10 12:42:57;;;;;;;;;;;;;;;15.20;67.10;100280.81;5107736;27;5086;-78
2023/08/10 12:45:49;;;;;;;;;;;;;;;15.22;67.05;100289.50;5103357;27;5343;-78
2023/08/10 12:48:41;;;;;;;;;;;;;;;15.22;67.03;100281.38;5105802;27;5512;-76
2023/08/10 12:51:33;;;;;;;;;;;;;;;15.24;67.12;100294.69;5109770;27;5489;-76
2023/08/10 12:54:25;;;;;;;;;;;;;;;15.25;67.14;100290.91;5107673;27;6089;-79
2023/08/10 12:57:17;;;;;;;;;;;;;;;15.25;67.12;100300.94;5110101;27;5406;-76
2023/08/10 13:00:09;;;;;;;;;;;;;;;15.25;67.21;100295.50;5108651;27;5375;-78
2023/08/10 13:03:00;;;;;;;;;;;;;;;15.26;67.23;100300.66;5112696;27;5370;-77
2023/08/10 13:05:51;;;;;;;;;;;;;;;15.27;67.23;100299.63;5114006;27;5535;-77
2023/08/10 13:08:44;;;;;;;;;;;;;;;15.27;67.22;100299.63;5115605;27;5561;-76
2023/08/10 13:11:36;;;;;;;;;;;;;;;15.29;67.20;100302.06;5110430;27;5538;-78
2023/08/10 13:14:27;;;;;;;;;;;;;;;15.29;67.24;100302.88;5108319;27;5460;-76
2023/08/10 13:17:19;;;;;;;;;;;;;;;15.30;67.34;100303.72;5107023;27;5996;-76
2023/08/10 13:20:12;;;;;;;;;;;;;;;15.29;67.25;100302.88;5098675;27;5185;-75
2023/08/10 13:23:04;;;;;;;;;;;;;;;15.30;67.29;100307.22;5104845;27;5532;-76
2023/08/10 13:25:56;;;;;;;;;;;;;;;15.32;67.47;100309.69;5102806;27;6303;-75
2023/08/10 13:28:48;;;;;;;;;;;;;;;15.32;67.33;100298.81;5106040;27;5481;-76
2023/08/10 13:31:40;;;;;;;;;;;;;;;15.32;67.41;100304.25;5106233;27;5599;-77
2023/08/10 13:34:31;;;;;;;;;;;;;;;15.33;67.40;100301.28;5103066;27;6578;-79
2023/08/10 13:37:23;;;;;;;;;;;;;;;15.33;67.32;100295.88;5105599;27;6097;-77
2023/08/10 13:40:15;;;;;;;;;;;;;;;15.35;67.43;100303.72;5100817;27;5394;-76
2023/08/10 13:43:07;;;;;;;;;;;;;;;15.34;67.35;100294.78;5107773;27;5477;-77
2023/08/10 13:46:00;;;;;;;;;;;;;;;15.35;67.40;100301.03;5116422;27;5483;-78
2023/08/10 13:48:53;;;;;;;;;;;;;;;15.36;67.41;100305.41;5114352;27;6386;-76
2023/08/10 13:51:44;;;;;;;;;;;;;;;15.36;67.53;100310.81;5111598;27;5554;-78
2023/08/10 13:54:37;;;;;;;;;;;;;;;15.36;67.48;100308.91;5111260;27;6145;-76
2023/08/10 13:57:28;;;;;;;;;;;;;;;15.37;67.45;100304.31;5114993;27;5530;-77
2023/08/10 14:00:21;;;;;;;;;;;;;;;14.98;67.76;100248.34;5115933;27;5472;-74
2023/08/10 14:03:13;;;;;;;;;;;;;;;15.38;67.45;100308.66;5112391;27;6633;-79
2023/08/10 14:06:05;;;;;;;;;;;;;;;15.38;67.48;100312.19;5112458;27;5909;-76
2023/08/10 14:08:57;;;;;;;;;;;;;;;15.38;67.57;100309.50;5115351;27;5598;-76
2023/08/10 14:11:48;;;;;;;;;;;;;;;15.40;67.59;100306.50;5112156;27;5534;-77
2023/08/10 14:14:40;;;;;;;;;;;;;;;15.40;67.60;100301.06;5109570;27;6591;-76
2023/08/10 14:17:32;;;;;;;;;;;;;;;15.41;67.68;100314.41;5112345;27;6089;-77
2023/08/10 14:20:23;;;;;;;;;;;;;;;15.41;67.60;100306.25;5116679;27;5416;-78
2023/08/10 14:23:15;;;;;;;;;;;;;;;15.42;67.70;100304.34;5113555;27;5993;-78
2023/08/10 14:26:07;;;;;;;;;;;;;;;15.42;67.72;100305.16;5114547;27;6522;-77
2023/08/10 14:28:59;;;;;;;;;;;;;;;15.42;67.62;100310.59;5111597;27;5413;-76
2023/08/10 14:31:51;;;;;;;;;;;;;;;15.43;67.58;100306.81;5112457;27;6446;-77
2023/08/10 14:34:43;;;;;;;;;;;;;;;15.44;67.62;100305.75;5114790;27;5535;-76
2023/08/10 14:37:35;;;;;;;;;;;;;;;15.45;67.77;100311.97;5110614;27;6381;-78
2023/08/10 14:40:26;;;;;;;;;;;;;;;15.44;67.74;100313.88;5112713;27;5489;-77
2023/08/10 14:43:18;;;;;;;;;;;;;;;15.47;67.74;100309.00;5113494;28;5474;-75
2023/08/10 14:46:10;;;;;;;;;;;;;;;15.47;67.73;100311.72;5111157;27;5350;-76
2023/08/10 14:49:03;;;;;;;;;;;;;;;15.46;67.73;100308.19;5114481;28;5397;-77
2023/08/10 14:51:54;;;;;;;;;;;;;;;15.48;67.70;100314.19;5117346;28;5428;-77
2023/08/10 14:54:47;;;;;;;;;;;;;;;15.48;67.74;100311.47;5116186;28;5433;-76
2023/08/10 14:57:39;;;;;;;;;;;;;;;15.49;67.68;100323.94;5108910;28;5483;-74